This is the latest recevied weather packets stored in our database for station/object DH0DM-13. If no packets are shown the sender has not sent any weather packets the latest 10 day(s).
| Time | Temp. | Humidity | Pressure | Rain* | Wind** | Luminosity | Snow |
|---|---|---|---|---|---|---|---|
| 1777581211 | 6.67° C | 76% | 1002.6 hPa | 0 mm | 0 m/s | - | - |
| 1777580611 | 6.67° C | 76% | 1002.4 hPa | 0 mm | 0 m/s | - | - |
| 1777580010 | 7.22° C | 74% | 1002.7 hPa | 0 mm | 0 m/s | - | - |
| 1777579409 | 7.78° C | 72% | 1002.5 hPa | 0 mm | 0 m/s | - | - |
| 1777578808 | 7.78° C | 72% | 1002.6 hPa | 0 mm | 0 m/s | - | - |
| 1777578207 | 7.78° C | 72% | 1002.6 hPa | 0 mm | 0 m/s | - | - |
| 1777577606 | 7.78° C | 72% | 1002.5 hPa | 0 mm | 0 m/s | - | - |
| 1777577005 | 8.33° C | 70% | 1002.5 hPa | 0 mm | 0 m/s | - | - |
| 1777576404 | 8.33° C | 69% | 1002.6 hPa | 0 mm | 0 m/s | - | - |
| 1777575804 | 8.89° C | 67% | 1002.4 hPa | 0 mm | 0 m/s | - | - |
| 1777575202 | 10° C | 66% | 1002.2 hPa | 0 mm | 0 m/s | - | - |
| 1777574601 | 10.56° C | 63% | 1002.5 hPa | 0 mm | 0 m/s | - | - |
| 1777574000 | 11.11° C | 58% | 1002.2 hPa | 0 mm | 0 m/s | - | - |
| 1777573400 | 12.22° C | 53% | 1002.4 hPa | 0 mm | 0.89 m/s, 237° | - | - |
| 1777572799 | 13.33° C | 47% | 1002.2 hPa | 0 mm | 0 m/s | - | - |
| 1777572198 | 14.44° C | 45% | 1002.5 hPa | 0 mm | 0 m/s | - | - |
| 1777571597 | 15° C | 43% | 1002.3 hPa | 0 mm | 0 m/s | - | - |
| 1777570996 | 15.56° C | 41% | 1002.1 hPa | 0 mm | 0 m/s | - | - |
| 1777570395 | 16.11° C | 39% | 1002.1 hPa | 0 mm | 0 m/s | - | - |
| 1777569794 | 16.11° C | 38% | 1002.3 hPa | 0 mm | 0.89 m/s, 333° | - | - |
| 1777569193 | 16.67° C | 36% | 1002.4 hPa | 0 mm | 1.34 m/s, 294° | - | - |
| 1777568592 | 16.67° C | 37% | 1002.2 hPa | 0 mm | 0 m/s | - | - |
| 1777567992 | 16.67° C | 37% | 1002.2 hPa | 0 mm | 0.89 m/s, 23° | - | - |
| 1777567391 | 16.67° C | 36% | 1002.2 hPa | 0 mm | 2.68 m/s, 96° | - | - |
| 1777566790 | 17.22° C | 35% | 1002.3 hPa | 0 mm | 3.58 m/s, 307° | - | - |
* Rain since midnight (hover to see other rain measurements)
** Current wind speed in m/s (hover to see current wind gust speed)